Time;durP1;ratioP1;P1;durP2;ratioP2;P2;SDS_P1;SDS_P2;PMS_P1;PMS_P2;Temp;Humidity;BMP_temperature;BMP_pressure;BME280_temperature;BME280_humidity;BME280_pressure;Samples;Min_cycle;Max_cycle;Signal;HPM_P1;HPM_P2
2022/03/22 00:02:17;;;;;;;18.45;8.48;;;;;;;-141.50;100.00;63355.56;5109145;28;20101;-77
2022/03/22 00:04:44;;;;;;;17.13;7.53;;;;;;;-141.50;100.00;63355.56;5109221;28;20113;-77
2022/03/22 00:07:10;;;;;;;18.38;7.38;;;;;;;-141.50;100.00;63355.56;5090986;28;20089;-75
2022/03/22 00:09:37;;;;;;;18.92;7.32;;;;;;;-141.50;100.00;63355.56;5108481;28;20470;-78
2022/03/22 00:12:05;;;;;;;21.38;8.15;;;;;;;-141.50;100.00;63355.56;5107698;28;20044;-78
2022/03/22 00:14:33;;;;;;;15.95;7.68;;;;;;;-141.50;100.00;63355.56;5100170;28;20047;-76
2022/03/22 00:17:20;;;;;;;21.83;7.53;;;;;;;-141.50;100.00;63355.56;5093188;28;20135;-76
2022/03/22 00:19:56;;;;;;;16.65;8.00;;;;;;;-141.50;100.00;63355.56;5108023;28;20138;-76
2022/03/22 00:22:24;;;;;;;19.20;8.52;;;;;;;-141.50;100.00;63355.56;5106931;28;20044;-75
2022/03/22 00:24:51;;;;;;;18.67;7.82;;;;;;;-141.50;100.00;63355.56;5109483;28;20070;-76
2022/03/22 00:27:17;;;;;;;16.73;7.65;;;;;;;-141.50;100.00;63355.56;5108503;28;20043;-75
2022/03/22 00:29:44;;;;;;;24.38;8.60;;;;;;;-141.50;100.00;63355.56;5109200;28;20047;-77
2022/03/22 00:32:12;;;;;;;21.10;8.32;;;;;;;-141.50;100.00;63355.56;5108043;28;20075;-76
2022/03/22 00:34:44;;;;;;;18.88;8.50;;;;;;;-141.50;100.00;63355.56;5109147;28;20465;-77
2022/03/22 00:37:14;;;;;;;15.70;8.35;;;;;;;-141.50;100.00;63355.56;5109077;28;20419;-76
2022/03/22 00:39:42;;;;;;;19.08;9.05;;;;;;;-141.50;100.00;63355.56;5110011;28;20043;-76
2022/03/22 00:42:11;;;;;;;17.67;8.40;;;;;;;-141.50;100.00;63355.56;5089143;28;20044;-78
2022/03/22 00:44:38;;;;;;;20.13;8.43;;;;;;;-141.50;100.00;63355.56;5108598;28;20079;-78
2022/03/22 00:47:07;;;;;;;16.88;7.88;;;;;;;-141.50;100.00;63355.56;5107279;28;20058;-77
2022/03/22 00:49:36;;;;;;;15.80;7.75;;;;;;;-141.50;100.00;63355.56;5108940;28;20055;-78
2022/03/22 00:52:04;;;;;;;18.50;8.63;;;;;;;-141.50;100.00;63355.56;5089513;28;20130;-77
2022/03/22 00:54:33;;;;;;;18.88;8.43;;;;;;;-141.50;100.00;63355.56;5091987;28;20048;-77
2022/03/22 00:56:59;;;;;;;18.27;7.97;;;;;;;-141.50;100.00;63355.56;5090916;28;20055;-76
2022/03/22 01:02:11;;;;;;;23.17;8.80;;;;;;;-141.50;100.00;63355.56;5088718;28;20460;-74
2022/03/22 01:04:38;;;;;;;18.70;8.98;;;;;;;-141.50;100.00;63355.56;5088066;28;20131;-76
2022/03/22 01:07:05;;;;;;;17.58;8.50;;;;;;;-141.50;100.00;63355.56;5088212;28;20087;-75
2022/03/22 01:09:32;;;;;;;19.60;8.85;;;;;;;-141.50;100.00;63355.56;5088593;28;20052;-77
2022/03/22 01:11:58;;;;;;;23.77;9.52;;;;;;;-141.50;100.00;63355.56;5068395;28;20481;-76
2022/03/22 01:14:28;;;;;;;22.52;9.57;;;;;;;-141.50;100.00;63355.56;5087270;28;20098;-76
2022/03/22 01:16:57;;;;;;;20.95;8.75;;;;;;;-141.50;100.00;63355.56;5087528;28;20127;-76
2022/03/22 01:19:28;;;;;;;21.55;8.93;;;;;;;-141.50;100.00;63355.56;5088717;28;20721;-76
2022/03/22 01:21:55;;;;;;;23.27;8.85;;;;;;;-141.50;100.00;63355.56;5087961;28;20117;-77
2022/03/22 01:24:21;;;;;;;20.52;8.25;;;;;;;-141.50;100.00;63355.56;5090500;28;20611;-77
2022/03/22 01:26:48;;;;;;;22.75;9.15;;;;;;;-141.50;100.00;63355.56;5091745;28;20052;-77
2022/03/22 01:29:14;;;;;;;19.88;8.93;;;;;;;-141.50;100.00;63355.56;5071110;28;20645;-77
2022/03/22 01:31:41;;;;;;;18.85;9.02;;;;;;;-141.50;100.00;63355.56;5090682;28;20048;-77
2022/03/22 01:34:08;;;;;;;20.02;8.98;;;;;;;-141.50;100.00;63355.56;5090454;28;20078;-77
2022/03/22 01:36:35;;;;;;;22.33;9.35;;;;;;;-141.50;100.00;63355.56;5090986;28;20134;-76
2022/03/22 01:39:02;;;;;;;19.83;9.32;;;;;;;-141.50;100.00;63355.56;5091456;28;20048;-77
2022/03/22 01:41:29;;;;;;;18.15;9.40;;;;;;;-141.50;100.00;63355.56;5089966;28;20109;-79
2022/03/22 01:43:56;;;;;;;23.95;9.07;;;;;;;-141.50;100.00;63355.56;5091160;28;20120;-77
2022/03/22 01:46:27;;;;;;;22.85;9.30;;;;;;;-141.50;100.00;63355.56;5090266;28;20709;-78
2022/03/22 01:48:54;;;;;;;22.85;9.48;;;;;;;-141.50;100.00;63355.56;5088750;28;20101;-78
2022/03/22 01:51:21;;;;;;;21.98;8.65;;;;;;;-141.50;100.00;63355.56;5097857;28;20070;-78
2022/03/22 01:53:49;;;;;;;22.38;9.82;;;;;;;-141.50;100.00;63355.56;5114743;28;20032;-77
2022/03/22 01:56:17;;;;;;;21.13;9.48;;;;;;;-141.50;100.00;63355.56;5115662;28;20032;-75
2022/03/22 01:58:43;;;;;;;19.73;9.10;;;;;;;-141.50;100.00;63355.56;5076671;28;20063;-78
2022/03/22 02:06:44;;;;;;;23.52;9.95;;;;;;;-141.50;100.00;63355.56;5091801;28;20048;-79
2022/03/22 02:09:11;;;;;;;23.17;10.10;;;;;;;-141.50;100.00;63355.56;5092235;28;20418;-78
2022/03/22 02:11:38;;;;;;;21.13;9.93;;;;;;;-141.50;100.00;63355.56;5089469;28;20353;-77
2022/03/22 02:14:05;;;;;;;23.27;9.82;;;;;;;-141.50;100.00;63355.56;5099658;28;20083;-78
2022/03/22 02:16:32;;;;;;;19.95;9.07;;;;;;;-141.50;100.00;63355.56;5110869;28;20534;-78
2022/03/22 02:18:59;;;;;;;23.55;10.50;;;;;;;-141.50;100.00;63355.56;5092964;28;20722;-78
2022/03/22 02:21:30;;;;;;;22.92;9.80;;;;;;;-141.50;100.00;63355.56;5110835;28;20583;-77
2022/03/22 02:23:57;;;;;;;22.77;10.23;;;;;;;-141.50;100.00;63355.56;5111758;28;20043;-77
2022/03/22 02:26:25;;;;;;;22.25;10.05;;;;;;;-141.50;100.00;63355.56;5110982;28;20048;-76
2022/03/22 02:28:53;;;;;;;26.88;10.50;;;;;;;-141.50;100.00;63355.56;5111552;28;20580;-78
2022/03/22 02:31:25;;;;;;;22.30;9.68;;;;;;;-141.50;100.00;63355.56;5109194;28;20104;-77
2022/03/22 02:33:52;;;;;;;22.00;9.52;;;;;;;-141.50;100.00;63355.56;5110440;28;20426;-77
2022/03/22 02:36:19;;;;;;;28.30;9.80;;;;;;;-141.50;100.00;63355.56;5111429;28;20047;-77
2022/03/22 02:38:46;;;;;;;17.38;9.05;;;;;;;-141.50;100.00;63355.56;5110961;28;20468;-77
2022/03/22 02:41:24;;;;;;;25.83;9.95;;;;;;;-141.50;100.00;63355.56;5091191;28;20075;-78
2022/03/22 02:43:52;;;;;;;23.70;9.73;;;;;;;-141.50;100.00;63355.56;5093107;28;20069;-77
2022/03/22 02:46:19;;;;;;;23.05;10.65;;;;;;;-141.50;100.00;63355.56;5094273;28;20059;-77
2022/03/22 02:48:46;;;;;;;24.00;10.05;;;;;;;-141.50;100.00;63355.56;5112352;28;20051;-78
2022/03/22 02:51:13;;;;;;;20.33;9.70;;;;;;;-141.50;100.00;63355.56;5111753;28;20530;-77
2022/03/22 02:53:40;;;;;;;21.70;10.13;;;;;;;-141.50;100.00;63355.56;5113316;28;20048;-78
2022/03/22 02:56:06;;;;;;;22.88;10.15;;;;;;;-141.50;100.00;63355.56;5110915;28;20087;-77
2022/03/22 02:58:33;;;;;;;22.60;9.70;;;;;;;-141.50;100.00;63355.56;5111075;28;20777;-76
2022/03/22 03:01:00;;;;;;;21.77;10.40;;;;;;;-141.50;100.00;63355.56;5108788;28;20070;-78
2022/03/22 03:03:28;;;;;;;21.88;9.57;;;;;;;-141.50;100.00;63355.56;5110589;28;20638;-77
2022/03/22 03:05:54;;;;;;;24.73;10.30;;;;;;;-141.50;100.00;63355.56;5109963;28;20147;-78
2022/03/22 03:08:26;;;;;;;22.83;9.70;;;;;;;-141.50;100.00;63355.56;5092452;28;20063;-77
2022/03/22 03:10:54;;;;;;;23.02;9.88;;;;;;;-141.50;100.00;63355.56;5108522;28;20139;-79
2022/03/22 03:13:21;;;;;;;22.92;10.18;;;;;;;-141.50;100.00;63355.56;5106741;28;20068;-79
2022/03/22 03:15:48;;;;;;;23.45;9.57;;;;;;;-141.50;100.00;63355.56;5085920;28;20044;-78
2022/03/22 03:18:14;;;;;;;25.05;10.48;;;;;;;-141.50;100.00;63355.56;5110426;28;20043;-78
2022/03/22 03:20:41;;;;;;;21.92;10.05;;;;;;;-141.50;100.00;63355.56;5109157;28;20507;-79
2022/03/22 03:23:07;;;;;;;22.73;10.23;;;;;;;-141.50;100.00;63355.56;5110255;28;20043;-77
2022/03/22 03:25:35;;;;;;;21.50;10.18;;;;;;;-141.50;100.00;63355.56;5110460;28;20071;-79
2022/03/22 03:28:02;;;;;;;25.65;10.23;;;;;;;-141.50;100.00;63355.56;5091716;28;20134;-79
2022/03/22 03:30:30;;;;;;;24.17;11.10;;;;;;;-141.50;100.00;63355.56;5090147;28;20067;-77
2022/03/22 03:32:57;;;;;;;26.05;10.70;;;;;;;-141.50;100.00;63355.56;5093015;28;20105;-78
2022/03/22 03:35:24;;;;;;;23.42;10.48;;;;;;;-141.50;100.00;63355.56;5089074;28;20060;-78
2022/03/22 03:37:51;;;;;;;26.58;11.43;;;;;;;-141.50;100.00;63355.56;5089621;28;20101;-77
2022/03/22 03:40:17;;;;;;;21.70;10.10;;;;;;;-141.50;100.00;63355.56;5089118;28;20140;-77
2022/03/22 03:42:45;;;;;;;25.33;10.43;;;;;;;-141.50;100.00;63355.56;5088545;28;20040;-78
2022/03/22 03:47:58;;;;;;;22.77;9.95;;;;;;;-141.50;100.00;63355.56;5088979;28;20095;-77
2022/03/22 03:50:26;;;;;;;23.05;10.77;;;;;;;-141.50;100.00;63355.56;5071075;28;20044;-77
2022/03/22 03:52:53;;;;;;;22.30;9.93;;;;;;;-141.50;100.00;63355.56;5087098;28;20046;-79
2022/03/22 03:55:20;;;;;;;25.00;11.30;;;;;;;-141.50;100.00;63355.56;5089556;28;20489;-78
2022/03/22 03:57:48;;;;;;;24.33;10.73;;;;;;;-141.50;100.00;63355.56;5089114;28;20099;-76
2022/03/22 04:00:16;;;;;;;26.88;10.68;;;;;;;-141.50;100.00;63355.56;5088984;28;20056;-78
2022/03/22 04:02:43;;;;;;;26.30;10.80;;;;;;;-141.50;100.00;63355.56;5088402;28;20040;-78
2022/03/22 04:05:10;;;;;;;26.13;11.00;;;;;;;-141.50;100.00;63355.56;5089646;28;20079;-77
2022/03/22 04:07:37;;;;;;;22.58;11.15;;;;;;;-141.50;100.00;63355.56;5072793;28;20441;-77
2022/03/22 04:10:05;;;;;;;26.73;10.57;;;;;;;-141.50;100.00;63355.56;5092056;28;20465;-77
2022/03/22 04:12:32;;;;;;;23.65;10.70;;;;;;;-141.50;100.00;63355.56;5076799;28;20447;-77
2022/03/22 04:15:04;;;;;;;23.75;10.45;;;;;;;-141.50;100.00;63355.56;5094118;28;20080;-77
2022/03/22 04:17:32;;;;;;;25.27;10.68;;;;;;;-141.50;100.00;63355.56;5073495;28;20074;-77
2022/03/22 04:19:59;;;;;;;22.85;10.55;;;;;;;-141.50;100.00;63355.56;5090377;28;20052;-78
2022/03/22 04:22:25;;;;;;;21.33;10.13;;;;;;;-141.50;100.00;63355.56;5087898;28;20124;-77
2022/03/22 04:25:10;;;;;;;29.55;11.05;;;;;;;-141.50;100.00;63355.56;5073881;28;20039;-78
2022/03/22 04:33:07;;;;;;;24.90;10.55;;;;;;;-141.50;100.00;63355.56;5109478;28;20078;-77
2022/03/22 04:35:33;;;;;;;27.25;11.25;;;;;;;-141.50;100.00;63355.56;5109909;28;20066;-78
2022/03/22 04:38:00;;;;;;;23.60;10.77;;;;;;;-141.50;100.00;63355.56;5111289;28;20115;-77
2022/03/22 04:40:27;;;;;;;26.73;11.18;;;;;;;-141.50;100.00;63355.56;5098627;28;20048;-77
2022/03/22 04:42:54;;;;;;;32.28;10.80;;;;;;;-141.50;100.00;63355.56;5088525;28;20233;-78
2022/03/22 04:45:20;;;;;;;23.77;10.75;;;;;;;-141.50;100.00;63355.56;5088702;28;20530;-77
2022/03/22 04:47:47;;;;;;;25.85;10.90;;;;;;;-141.50;100.00;63355.56;5088248;28;20051;-77
2022/03/22 04:50:16;;;;;;;24.02;10.45;;;;;;;-141.50;100.00;63355.56;5089451;28;20091;-76
2022/03/22 04:58:15;;;;;;;26.83;10.88;;;;;;;-141.50;100.00;63355.56;5087168;28;20499;-76
2022/03/22 05:00:42;;;;;;;28.40;10.25;;;;;;;-141.50;100.00;63355.56;5086642;28;20044;-78
2022/03/22 05:03:09;;;;;;;23.35;10.38;;;;;;;-141.50;100.00;63355.56;5087139;28;20040;-76
2022/03/22 05:08:21;;;;;;;21.33;9.73;;;;;;;-141.50;100.00;63355.56;5092587;28;20124;-77
2022/03/22 05:10:48;;;;;;;25.45;10.25;;;;;;;-141.50;100.00;63355.56;5086430;28;20507;-77
2022/03/22 05:13:19;;;;;;;24.42;9.40;;;;;;;-141.50;100.00;63355.56;5092548;28;20046;-77
2022/03/22 05:15:47;;;;;;;23.83;9.75;;;;;;;-141.50;100.00;63355.56;5089112;28;20469;-76
2022/03/22 05:18:14;;;;;;;22.85;9.73;;;;;;;-141.50;100.00;63355.56;5106821;28;20060;-77
2022/03/22 05:20:41;;;;;;;33.70;11.07;;;;;;;-141.50;100.00;63355.56;5106474;28;20055;-79
2022/03/22 05:23:07;;;;;;;34.75;11.73;;;;;;;-141.50;100.00;63355.56;5113237;28;20099;-77
2022/03/22 05:25:34;;;;;;;24.05;9.32;;;;;;;-141.50;100.00;63355.56;5113088;28;20073;-75
2022/03/22 05:28:02;;;;;;;19.30;8.73;;;;;;;-141.50;100.00;63355.56;5098712;28;20044;-78
2022/03/22 05:30:30;;;;;;;17.88;8.48;;;;;;;-141.50;100.00;63355.56;5091054;28;20084;-77
2022/03/22 05:32:57;;;;;;;19.30;8.43;;;;;;;-141.50;100.00;63355.56;5093535;28;20047;-78
2022/03/22 05:35:24;;;;;;;18.17;8.30;;;;;;;-141.50;100.00;63355.56;5095327;28;20171;-78
2022/03/22 05:37:51;;;;;;;23.38;9.13;;;;;;;-141.50;100.00;63355.56;5095470;28;20128;-78
2022/03/22 05:40:18;;;;;;;19.77;8.68;;;;;;;-141.50;100.00;63355.56;5095468;28;20044;-76
2022/03/22 05:42:44;;;;;;;18.98;8.55;;;;;;;-141.50;100.00;63355.56;5104355;28;20069;-79
2022/03/22 05:45:12;;;;;;;21.33;9.02;;;;;;;-141.50;100.00;63355.56;5096367;28;20047;-78
2022/03/22 05:47:39;;;;;;;23.42;8.27;;;;;;;-141.50;100.00;63355.56;5092409;28;20464;-78
2022/03/22 05:50:07;;;;;;;23.15;9.50;;;;;;;-141.50;100.00;63355.56;5092430;28;20044;-78
2022/03/22 05:52:34;;;;;;;23.38;8.73;;;;;;;-141.50;100.00;63355.56;5092484;28;20545;-78
2022/03/22 05:55:00;;;;;;;17.80;8.57;;;;;;;-141.50;100.00;63355.56;5077598;28;20091;-78
2022/03/22 05:57:27;;;;;;;23.35;8.60;;;;;;;-141.50;100.00;63355.56;5090934;28;20067;-78
2022/03/22 05:59:54;;;;;;;21.95;9.52;;;;;;;-141.50;100.00;63355.56;5091699;28;20083;-77
2022/03/22 06:02:20;;;;;;;20.98;8.70;;;;;;;-141.50;100.00;63355.56;5089750;28;20093;-75
2022/03/22 06:04:48;;;;;;;22.60;9.32;;;;;;;-141.50;100.00;63355.56;5092697;28;20083;-78
2022/03/22 06:07:18;;;;;;;22.95;9.32;;;;;;;-141.50;100.00;63355.56;5092602;28;20088;-79
2022/03/22 06:09:47;;;;;;;22.95;9.93;;;;;;;-141.50;100.00;63355.56;5095101;28;20052;-77
2022/03/22 06:12:14;;;;;;;19.00;8.05;;;;;;;-141.50;100.00;63355.56;5093595;28;20084;-77
2022/03/22 06:14:41;;;;;;;21.75;8.63;;;;;;;-141.50;100.00;63355.56;5107035;28;20043;-78
2022/03/22 06:17:08;;;;;;;18.42;8.20;;;;;;;-141.50;100.00;63355.56;5116412;28;20109;-78
2022/03/22 06:19:34;;;;;;;23.08;8.75;;;;;;;-141.50;100.00;63355.56;5124032;28;20124;-76
2022/03/22 06:22:01;;;;;;;23.00;7.97;;;;;;;-141.50;100.00;63355.56;5073403;28;20528;-78
2022/03/22 06:24:28;;;;;;;21.20;9.07;;;;;;;-141.50;100.00;63355.56;5090776;28;20048;-79
2022/03/22 06:26:55;;;;;;;22.05;9.00;;;;;;;-141.50;100.00;63355.56;5072605;28;20075;-78
2022/03/22 06:29:22;;;;;;;19.00;8.48;;;;;;;-141.50;100.00;63355.56;5086638;28;20052;-78
2022/03/22 06:31:50;;;;;;;21.83;8.77;;;;;;;-141.50;100.00;63355.56;5090279;28;20105;-77
2022/03/22 06:34:16;;;;;;;21.50;9.25;;;;;;;-141.50;100.00;63355.56;5074032;28;20048;-78
2022/03/22 06:36:43;;;;;;;18.40;8.95;;;;;;;-141.50;100.00;63355.56;5097203;28;20461;-77
2022/03/22 06:39:09;;;;;;;23.15;8.73;;;;;;;-141.50;100.00;63355.56;5111534;28;20077;-76
2022/03/22 06:41:36;;;;;;;21.80;8.75;;;;;;;-141.50;100.00;63355.56;5110390;28;20265;-77
2022/03/22 06:44:02;;;;;;;26.05;9.48;;;;;;;-141.50;100.00;63355.56;5109903;28;20119;-78
2022/03/22 06:46:29;;;;;;;25.42;8.80;;;;;;;-141.50;100.00;63355.56;5097520;28;20079;-77
2022/03/22 06:48:56;;;;;;;23.75;9.02;;;;;;;-141.50;100.00;63355.56;5089910;28;20574;-77
2022/03/22 06:51:25;;;;;;;18.50;8.73;;;;;;;-141.50;100.00;63355.56;5072017;28;20117;-78
2022/03/22 06:53:52;;;;;;;24.88;9.15;;;;;;;-141.50;100.00;63355.56;5089884;28;20110;-77
2022/03/22 06:56:18;;;;;;;19.15;9.50;;;;;;;-141.50;100.00;63355.56;5091722;28;20389;-78
2022/03/22 06:58:45;;;;;;;25.10;9.20;;;;;;;-141.50;100.00;63355.56;5090860;28;20052;-77
2022/03/22 07:01:11;;;;;;;20.73;9.10;;;;;;;-141.50;100.00;63355.56;5087749;28;20572;-78
2022/03/22 07:03:43;;;;;;;22.42;8.50;;;;;;;-141.50;100.00;63355.56;5090050;28;20044;-78
2022/03/22 07:06:09;;;;;;;23.55;10.05;;;;;;;-141.50;100.00;63355.56;5090968;28;20142;-79
2022/03/22 07:08:36;;;;;;;19.45;8.77;;;;;;;-141.50;100.00;63355.56;5090056;28;20464;-77
2022/03/22 07:13:49;;;;;;;32.65;12.73;;;;;;;-141.50;100.00;63355.56;5097734;28;20036;-79
2022/03/22 07:16:16;;;;;;;17.77;7.80;;;;;;;-141.50;100.00;63355.56;5106503;28;20057;-78
2022/03/22 07:18:43;;;;;;;23.13;8.18;;;;;;;-141.50;100.00;63355.56;5090326;28;20511;-79
2022/03/22 07:21:09;;;;;;;15.45;7.78;;;;;;;-141.50;100.00;63355.56;5096501;28;20052;-79
2022/03/22 07:23:38;;;;;;;20.23;8.10;;;;;;;-141.50;100.00;63355.56;5093813;28;20047;-77
2022/03/22 07:26:04;;;;;;;18.40;7.57;;;;;;;-141.50;100.00;63355.56;5090945;28;20070;-78
2022/03/22 07:28:31;;;;;;;16.13;7.82;;;;;;;-141.50;100.00;63355.56;5091091;28;20075;-77
2022/03/22 07:30:58;;;;;;;17.50;7.40;;;;;;;-141.50;100.00;63355.56;5069123;28;20101;-78
2022/03/22 07:33:25;;;;;;;17.52;7.78;;;;;;;-141.50;100.00;63355.56;5087736;28;20052;-78
2022/03/22 07:35:53;;;;;;;19.40;7.32;;;;;;;-141.50;100.00;63355.56;5089620;28;20131;-78
2022/03/22 07:38:19;;;;;;;16.05;7.60;;;;;;;-141.50;100.00;63355.56;5089296;28;20507;-78
2022/03/22 07:40:46;;;;;;;14.88;7.25;;;;;;;-141.50;100.00;63355.56;5088365;28;20548;-77
2022/03/22 07:43:13;;;;;;;15.45;6.93;;;;;;;-141.50;100.00;63355.56;5072118;28;20495;-77
2022/03/22 07:45:40;;;;;;;17.75;7.75;;;;;;;-141.50;100.00;63355.56;5089282;28;20109;-78
2022/03/22 07:48:07;;;;;;;16.63;7.18;;;;;;;-141.50;100.00;63355.56;5096564;28;20462;-78
2022/03/22 07:53:19;;;;;;;14.82;7.18;;;;;;;-141.50;100.00;63355.56;5089882;28;20087;-79
2022/03/22 07:55:46;;;;;;;19.92;7.15;;;;;;;-141.50;100.00;63355.56;5090799;28;20464;-78
2022/03/22 07:58:12;;;;;;;15.00;7.18;;;;;;;-141.50;100.00;63355.56;5089782;28;20095;-76
2022/03/22 08:00:41;;;;;;;12.75;7.25;;;;;;;-141.50;100.00;63355.56;5069420;28;20140;-77
2022/03/22 08:03:12;;;;;;;14.48;7.15;;;;;;;-141.50;100.00;63355.56;5087318;28;20499;-77
2022/03/22 08:05:40;;;;;;;13.38;7.10;;;;;;;-141.50;100.00;63355.56;5090780;28;20224;-78
2022/03/22 08:08:07;;;;;;;16.73;7.22;;;;;;;-141.50;100.00;63355.56;5091642;28;20055;-78
2022/03/22 08:10:53;;;;;;;15.07;7.10;;;;;;;-141.50;100.00;63355.56;5107397;28;20054;-76
2022/03/22 08:13:20;;;;;;;14.20;6.65;;;;;;;-141.50;100.00;63355.56;5103531;28;20079;-77
2022/03/22 08:15:46;;;;;;;15.52;6.70;;;;;;;-141.50;100.00;63355.56;5102775;28;20085;-78
2022/03/22 08:18:13;;;;;;;17.25;6.70;;;;;;;-141.50;100.00;63355.56;5107179;28;20044;-77
2022/03/22 08:20:40;;;;;;;16.98;6.97;;;;;;;-141.50;100.00;63355.56;5087259;28;20047;-78
2022/03/22 08:23:07;;;;;;;18.02;7.38;;;;;;;-141.50;100.00;63355.56;5094774;28;20527;-79
2022/03/22 08:25:40;;;;;;;19.23;6.80;;;;;;;-141.50;100.00;63355.56;5110525;28;20051;-79
2022/03/22 08:28:09;;;;;;;13.18;7.20;;;;;;;-141.50;100.00;63355.56;5109447;28;20298;-78
2022/03/22 08:30:37;;;;;;;15.20;7.13;;;;;;;-141.50;100.00;63355.56;5068846;28;20087;-76
2022/03/22 08:33:06;;;;;;;15.15;6.65;;;;;;;-141.50;100.00;63355.56;5049945;28;20076;-77
2022/03/22 08:35:39;;;;;;;16.67;6.95;;;;;;;-141.50;100.00;63355.56;5087450;28;20507;-78
2022/03/22 08:38:05;;;;;;;14.18;6.90;;;;;;;-141.50;100.00;63355.56;5090414;28;20372;-77
2022/03/22 08:40:32;;;;;;;15.05;6.97;;;;;;;-141.50;100.00;63355.56;5070296;28;20520;-77
2022/03/22 08:42:59;;;;;;;15.85;7.68;;;;;;;-141.50;100.00;63355.56;5087636;28;20044;-77
2022/03/22 08:45:27;;;;;;;13.75;6.70;;;;;;;-141.50;100.00;63355.56;5087447;28;20048;-77
2022/03/22 08:47:54;;;;;;;18.63;7.72;;;;;;;-141.50;100.00;63355.56;5096924;28;20517;-76
2022/03/22 08:50:25;;;;;;;11.45;6.65;;;;;;;-141.50;100.00;63355.56;5112540;28;20051;-75
2022/03/22 08:52:56;;;;;;;13.80;7.22;;;;;;;-141.50;100.00;63355.56;5125624;28;20046;-77
2022/03/22 08:55:25;;;;;;;14.38;6.90;;;;;;;-141.50;100.00;63355.56;5107909;28;20051;-78
2022/03/22 08:57:52;;;;;;;12.10;6.13;;;;;;;-141.50;100.00;63355.56;5091789;28;20470;-77
2022/03/22 09:00:20;;;;;;;16.58;6.32;;;;;;;-141.50;100.00;63355.56;5087736;28;20387;-77
2022/03/22 09:02:48;;;;;;;12.52;6.70;;;;;;;-141.50;100.00;63355.56;5089226;28;20116;-77
2022/03/22 09:08:06;;;;;;;12.60;6.40;;;;;;;-141.50;100.00;63355.56;5107842;28;20079;-78
2022/03/22 09:10:34;;;;;;;11.40;6.13;;;;;;;-141.50;100.00;63355.56;5107700;28;20087;-76
2022/03/22 09:13:03;;;;;;;13.70;6.55;;;;;;;-141.50;100.00;63355.56;5088214;28;20101;-77
2022/03/22 09:15:30;;;;;;;10.18;5.68;;;;;;;-141.50;100.00;63355.56;5099330;28;20097;-77
2022/03/22 09:17:58;;;;;;;10.30;6.20;;;;;;;-141.50;100.00;63355.56;5107956;28;20090;-78
2022/03/22 09:20:26;;;;;;;15.13;6.22;;;;;;;-141.50;100.00;63355.56;5108770;28;20059;-76
2022/03/22 09:22:53;;;;;;;14.48;6.10;;;;;;;-141.50;100.00;63355.56;5090310;28;20043;-77
2022/03/22 09:25:21;;;;;;;11.05;6.28;;;;;;;-141.50;100.00;63355.56;5109297;28;20063;-78
2022/03/22 09:27:48;;;;;;;15.27;6.78;;;;;;;-141.50;100.00;63355.56;5108791;28;20149;-78
2022/03/22 09:30:16;;;;;;;11.55;6.28;;;;;;;-141.50;100.00;63355.56;5109613;28;20047;-76
2022/03/22 09:32:43;;;;;;;14.88;6.22;;;;;;;-141.50;100.00;63355.56;5097186;28;20052;-76
2022/03/22 09:35:12;;;;;;;16.80;6.45;;;;;;;-141.50;100.00;63355.56;5070981;28;20044;-76
2022/03/22 09:37:39;;;;;;;13.50;6.68;;;;;;;-141.50;100.00;63355.56;5090779;28;20105;-76
2022/03/22 09:40:07;;;;;;;11.82;6.05;;;;;;;-141.50;100.00;63355.56;5089129;28;20071;-78
2022/03/22 09:42:34;;;;;;;13.20;6.13;;;;;;;-141.50;100.00;63355.56;5088520;28;20118;-76
2022/03/22 09:45:01;;;;;;;13.63;6.43;;;;;;;-141.50;100.00;63355.56;5087174;28;20484;-78
2022/03/22 09:47:30;;;;;;;12.63;6.45;;;;;;;-141.50;100.00;63355.56;5087528;28;20121;-76
2022/03/22 09:49:57;;;;;;;11.77;6.35;;;;;;;-141.50;100.00;63355.56;5088077;28;20075;-77
2022/03/22 09:52:24;;;;;;;12.20;6.30;;;;;;;-141.50;100.00;63355.56;5072442;28;20118;-77
2022/03/22 09:54:50;;;;;;;13.10;6.65;;;;;;;-141.50;100.00;63355.56;5091683;28;20105;-78
2022/03/22 09:57:17;;;;;;;13.20;6.93;;;;;;;-141.50;100.00;63355.56;5095710;28;20048;-78
2022/03/22 09:59:43;;;;;;;10.25;6.00;;;;;;;-141.50;100.00;63355.56;5110790;28;20079;-77
2022/03/22 10:02:10;;;;;;;11.05;5.75;;;;;;;-141.50;100.00;63355.56;5088694;28;20044;-76
2022/03/22 10:04:42;;;;;;;14.48;5.72;;;;;;;-141.50;100.00;63355.56;5093064;28;20048;-78
2022/03/22 10:07:20;;;;;;;9.10;5.40;;;;;;;-141.50;100.00;63355.56;5112242;28;20047;-78
2022/03/22 10:09:58;;;;;;;10.15;5.20;;;;;;;-141.50;100.00;63355.56;5114352;28;20048;-77
2022/03/22 10:12:32;;;;;;;10.35;5.10;;;;;;;-141.50;100.00;63355.56;5115621;28;20051;-77
2022/03/22 10:15:13;;;;;;;7.88;5.20;;;;;;;-141.50;100.00;63355.56;5114572;28;20093;-78
2022/03/22 10:17:43;;;;;;;13.35;5.57;;;;;;;-141.50;100.00;63355.56;5116572;28;20085;-77
2022/03/22 10:20:21;;;;;;;12.35;5.32;;;;;;;-141.50;100.00;63355.56;5095370;28;20468;-77
2022/03/22 10:22:56;;;;;;;9.43;5.32;;;;;;;-141.50;100.00;63355.56;5110460;28;20063;-78
2022/03/22 10:25:23;;;;;;;12.18;5.68;;;;;;;-141.50;100.00;63355.56;5092409;28;20051;-77
2022/03/22 10:27:54;;;;;;;11.18;4.72;;;;;;;-141.50;100.00;63355.56;5110713;28;20130;-77
2022/03/22 10:30:25;;;;;;;12.15;5.90;;;;;;;-141.50;100.00;63355.56;5106058;28;20089;-77
2022/03/22 10:32:57;;;;;;;12.82;5.50;;;;;;;-141.50;100.00;63355.56;5089489;28;20048;-78
2022/03/22 10:35:29;;;;;;;10.15;5.63;;;;;;;-141.50;100.00;63355.56;5099061;28;20055;-78
2022/03/22 10:38:04;;;;;;;10.40;5.28;;;;;;;-141.50;100.00;63355.56;5090220;28;20398;-77
2022/03/22 10:40:35;;;;;;;10.90;5.00;;;;;;;-141.50;100.00;63355.56;5089059;28;20113;-78
2022/03/22 10:43:03;;;;;;;10.95;5.13;;;;;;;-141.50;100.00;63355.56;5105371;28;20047;-77
2022/03/22 10:45:50;;;;;;;11.43;5.05;;;;;;;-141.50;100.00;63355.56;5099992;28;20048;-78
2022/03/22 10:48:19;;;;;;;9.73;5.97;;;;;;;-141.50;100.00;63355.56;5089709;28;20079;-78
2022/03/22 10:50:50;;;;;;;12.15;5.63;;;;;;;-141.50;100.00;63355.56;5089459;28;20504;-77
2022/03/22 10:53:19;;;;;;;10.00;5.85;;;;;;;-141.50;100.00;63355.56;5103225;28;20486;-76
2022/03/22 10:55:47;;;;;;;10.43;5.75;;;;;;;-141.50;100.00;63355.56;5101744;28;20052;-78
2022/03/22 10:58:18;;;;;;;11.05;5.97;;;;;;;-141.50;100.00;63355.56;5110157;28;20093;-77
2022/03/22 11:00:46;;;;;;;10.73;5.38;;;;;;;-141.50;100.00;63355.56;5093995;28;20052;-76
2022/03/22 11:03:15;;;;;;;11.90;5.55;;;;;;;-141.50;100.00;63355.56;5099384;28;20058;-77
2022/03/22 11:05:45;;;;;;;8.63;5.40;;;;;;;-141.50;100.00;63355.56;5094027;28;20047;-77
2022/03/22 11:08:13;;;;;;;8.90;5.53;;;;;;;-141.50;100.00;63355.56;5089609;28;20166;-77
2022/03/22 11:10:40;;;;;;;10.73;5.70;;;;;;;-141.50;100.00;63355.56;5096071;28;20054;-78
2022/03/22 11:13:07;;;;;;;8.73;5.28;;;;;;;-141.50;100.00;63355.56;5099546;28;20109;-77
2022/03/22 11:15:38;;;;;;;6.97;5.18;;;;;;;-141.50;100.00;63355.56;5088836;28;20048;-77
2022/03/22 11:18:07;;;;;;;8.30;5.55;;;;;;;-141.50;100.00;63355.56;5088718;28;20052;-77
2022/03/22 11:20:34;;;;;;;12.75;5.93;;;;;;;-141.50;100.00;63355.56;5088581;28;20048;-78
2022/03/22 11:23:00;;;;;;;9.07;6.05;;;;;;;-141.50;100.00;63355.56;5089136;28;20541;-79
2022/03/22 11:25:34;;;;;;;11.93;5.38;;;;;;;-141.50;100.00;63355.56;5079690;28;20618;-78
2022/03/22 11:28:09;;;;;;;9.30;5.60;;;;;;;-141.50;100.00;63355.56;5093809;28;20075;-78
2022/03/22 11:30:39;;;;;;;9.40;6.20;;;;;;;-141.50;100.00;63355.56;5088906;28;20060;-77
2022/03/22 11:35:57;;;;;;;7.82;5.70;;;;;;;-141.50;100.00;63355.56;5088987;28;20051;-78
2022/03/22 11:38:57;;;;;;;10.20;5.57;;;;;;;-141.50;100.00;63355.56;5088913;28;20093;-78
2022/03/22 11:44:31;;;;;;;9.05;5.45;;;;;;;-141.50;100.00;63355.56;5086391;28;20495;-74